createdAt,value
2018-12-08T00:01:01.712Z,99572.64
2018-12-08T00:03:30.033Z,99586.84
2018-12-08T00:05:58.512Z,99594.98
2018-12-08T00:08:27.276Z,99606.30
2018-12-08T00:10:55.508Z,99604.95
2018-12-08T00:13:23.684Z,99603.20
2018-12-08T00:15:51.920Z,99611.97
2018-12-08T00:18:20.108Z,99614.45
2018-12-08T00:20:48.270Z,99619.00
2018-12-08T00:23:16.420Z,99619.23
2018-12-08T00:25:44.661Z,99630.70
2018-12-08T00:28:12.817Z,99633.24
2018-12-08T00:30:52.416Z,99637.50
2018-12-08T00:33:20.628Z,99643.72
2018-12-08T00:35:48.904Z,99638.22
2018-12-08T00:38:17.180Z,99638.86
2018-12-08T00:40:45.320Z,99647.84
2018-12-08T00:43:13.528Z,99644.02
2018-12-08T00:45:41.833Z,99650.28
2018-12-08T00:48:09.982Z,99655.55
2018-12-08T00:50:38.145Z,99650.33
2018-12-08T00:53:06.441Z,99658.63
2018-12-08T00:55:34.727Z,99658.22
2018-12-08T00:58:02.877Z,99658.78
2018-12-08T01:00:31.068Z,99650.30
2018-12-08T01:02:59.340Z,99659.14
2018-12-08T01:05:27.548Z,99649.06
2018-12-08T01:07:55.788Z,99642.64
2018-12-08T01:10:23.944Z,99637.14
2018-12-08T01:12:52.353Z,99634.98
2018-12-08T01:15:20.632Z,99633.19
2018-12-08T01:17:48.789Z,99636.61
2018-12-08T01:20:17.089Z,99624.22
2018-12-08T01:22:45.251Z,99629.78
2018-12-08T01:25:13.720Z,99644.36
2018-12-08T01:27:42.010Z,99639.20
2018-12-08T01:30:10.504Z,99649.48
2018-12-08T01:32:38.753Z,99651.14
2018-12-08T01:35:07.048Z,99658.02
2018-12-08T01:37:35.216Z,99657.14
2018-12-08T01:40:03.928Z,99658.65
2018-12-08T01:42:32.079Z,99667.02
2018-12-08T01:45:00.260Z,99669.20
2018-12-08T01:47:28.424Z,99675.71
2018-12-08T01:49:56.628Z,99675.28
2018-12-08T01:52:24.780Z,99682.03
2018-12-08T01:54:53.232Z,99674.51
2018-12-08T01:57:21.668Z,99666.63
2018-12-08T01:59:50.032Z,99669.62
2018-12-08T02:02:18.320Z,99685.23
2018-12-08T02:04:46.472Z,99679.14
2018-12-08T02:07:14.653Z,99681.30
2018-12-08T02:09:42.821Z,99689.34
2018-12-08T02:12:11.016Z,99682.48
2018-12-08T02:14:39.272Z,99688.51
2018-12-08T02:17:07.457Z,99678.38
2018-12-08T02:19:35.720Z,99668.70
2018-12-08T02:22:04.024Z,99672.13
2018-12-08T02:24:32.296Z,99676.11
2018-12-08T02:27:00.580Z,99674.67
2018-12-08T02:29:28.848Z,99662.00
2018-12-08T02:31:57.030Z,99662.25
2018-12-08T02:34:25.272Z,99653.72
2018-12-08T02:36:53.469Z,99657.39
2018-12-08T02:39:21.638Z,99666.39
2018-12-08T02:41:50.065Z,99676.08
2018-12-08T02:44:18.310Z,99678.38
2018-12-08T02:46:46.588Z,99672.97
2018-12-08T02:49:14.847Z,99677.51
2018-12-08T02:51:43.036Z,99676.63
2018-12-08T02:54:11.177Z,99684.20
2018-12-08T02:56:39.380Z,99687.20
2018-12-08T02:59:07.644Z,99689.14
2018-12-08T03:01:35.844Z,99689.03
2018-12-08T03:04:04.168Z,99690.86
2018-12-08T03:06:32.497Z,99690.66
2018-12-08T03:09:00.665Z,99691.70
2018-12-08T03:11:29.097Z,99688.03
2018-12-08T03:13:57.240Z,99696.48
2018-12-08T03:16:25.388Z,99703.73
2018-12-08T03:18:53.546Z,99700.06
2018-12-08T03:21:21.948Z,99706.84
2018-12-08T03:23:50.129Z,99699.59
2018-12-08T03:26:18.288Z,99714.97
2018-12-08T03:28:46.485Z,99708.59
2018-12-08T03:31:14.741Z,99705.41
2018-12-08T03:33:42.924Z,99719.91
2018-12-08T03:36:11.093Z,99726.61
2018-12-08T03:38:39.273Z,99704.52
2018-12-08T03:41:07.558Z,99709.23
2018-12-08T03:43:35.944Z,99705.16
2018-12-08T03:46:04.208Z,99702.30
2018-12-08T03:48:32.376Z,99711.86
2018-12-08T03:51:00.558Z,99711.14
2018-12-08T03:53:28.704Z,99717.84
2018-12-08T03:55:57.013Z,99712.61
2018-12-08T03:58:25.192Z,99714.13
2018-12-08T04:00:53.353Z,99706.48
2018-12-08T04:03:21.640Z,99718.59
2018-12-08T04:05:49.806Z,99725.44
2018-12-08T04:08:17.952Z,99710.30
2018-12-08T04:10:46.273Z,99713.56
2018-12-08T04:13:14.441Z,99720.66
2018-12-08T04:15:42.606Z,99717.19
2018-12-08T04:18:10.799Z,99719.97
2018-12-08T04:20:38.994Z,99736.91
2018-12-08T04:23:07.141Z,99721.73
2018-12-08T04:25:35.416Z,99721.80
2018-12-08T04:28:03.561Z,99735.34
2018-12-08T04:30:31.769Z,99727.45
2018-12-08T04:32:59.921Z,99726.91
2018-12-08T04:35:28.221Z,99733.47
2018-12-08T04:37:56.388Z,99743.02
2018-12-08T04:40:24.574Z,99725.09
2018-12-08T04:42:52.941Z,99739.59
2018-12-08T04:45:21.154Z,99726.66
2018-12-08T04:47:49.292Z,99718.95
2018-12-08T04:50:17.456Z,99724.06
2018-12-08T04:52:45.636Z,99734.75
2018-12-08T04:55:13.825Z,99720.56
2018-12-08T04:57:42.092Z,99729.42
2018-12-08T05:00:10.500Z,99725.91
2018-12-08T05:02:38.724Z,99734.03
2018-12-08T05:05:07.148Z,99724.01
2018-12-08T05:07:35.400Z,99733.22
2018-12-08T05:10:03.804Z,99715.55
2018-12-08T05:12:31.960Z,99718.98
2018-12-08T05:15:00.114Z,99707.97
2018-12-08T05:17:28.415Z,99711.95
2018-12-08T05:19:56.596Z,99713.23
2018-12-08T05:22:24.766Z,99710.45
2018-12-08T05:24:52.969Z,99699.28
2018-12-08T05:27:21.120Z,99721.57
2018-12-08T05:29:49.437Z,99720.41
2018-12-08T05:32:17.789Z,99721.28
2018-12-08T05:34:45.981Z,99730.20
2018-12-08T05:37:14.125Z,99721.41
2018-12-08T05:39:42.281Z,99719.98
2018-12-08T05:42:10.596Z,99723.78
2018-12-08T05:44:38.748Z,99722.83
2018-12-08T05:47:06.937Z,99722.35
2018-12-08T05:49:35.196Z,99734.86
2018-12-08T05:52:03.349Z,99731.28
2018-12-08T05:54:31.657Z,99742.91
2018-12-08T05:56:59.896Z,99742.80
2018-12-08T05:59:28.206Z,99737.33
2018-12-08T06:01:56.444Z,99742.27
2018-12-08T06:04:24.656Z,99755.88
2018-12-08T06:06:52.845Z,99755.59
2018-12-08T06:09:21.009Z,99751.53
2018-12-08T06:11:49.194Z,99747.86
2018-12-08T06:14:17.329Z,99735.36
2018-12-08T06:16:45.545Z,99736.23
2018-12-08T06:19:13.809Z,99737.19
2018-12-08T06:21:41.960Z,99724.45
2018-12-08T06:24:10.104Z,99732.97
2018-12-08T06:26:47.149Z,99723.38
2018-12-08T06:29:16.028Z,99721.27
2018-12-08T06:31:44.316Z,99731.77
2018-12-08T06:34:12.679Z,99730.02
2018-12-08T06:36:40.849Z,99725.16
2018-12-08T06:39:09.040Z,99735.98
2018-12-08T06:41:37.223Z,99732.40
2018-12-08T06:44:05.508Z,99732.59
2018-12-08T06:46:33.797Z,99730.91
2018-12-08T06:49:01.964Z,99724.69
2018-12-08T06:51:30.129Z,99725.17
2018-12-08T06:53:58.300Z,99709.03
2018-12-08T06:56:26.444Z,99711.74
2018-12-08T06:58:54.760Z,99713.72
2018-12-08T07:01:22.916Z,99700.27
2018-12-08T07:03:51.104Z,99705.68
2018-12-08T07:06:19.393Z,99700.66
2018-12-08T07:08:47.640Z,99710.54
2018-12-08T07:11:15.780Z,99714.60
2018-12-08T07:13:43.933Z,99711.49
2018-12-08T07:16:12.392Z,99708.97
2018-12-08T07:18:40.568Z,99711.35
2018-12-08T07:21:08.830Z,99713.11
2018-12-08T07:23:37.016Z,99724.56
2018-12-08T07:26:05.164Z,99714.06
2018-12-08T07:28:33.353Z,99731.25
2018-12-08T07:31:01.646Z,99716.84
2018-12-08T07:33:29.932Z,99724.48
2018-12-08T07:35:58.125Z,99721.70
2018-12-08T07:38:26.285Z,99734.84
2018-12-08T07:40:54.440Z,99720.09
2018-12-08T07:43:22.736Z,99715.95
2018-12-08T07:45:50.884Z,99716.20
2018-12-08T07:48:19.199Z,99715.22
2018-12-08T07:50:47.560Z,99710.68
2018-12-08T07:53:15.952Z,99702.55
2018-12-08T07:55:44.097Z,99698.89
2018-12-08T07:58:12.277Z,99696.59
2018-12-08T08:00:40.579Z,99690.48
2018-12-08T08:03:08.728Z,99691.99
2018-12-08T08:05:36.921Z,99675.20
2018-12-08T08:08:05.080Z,99685.30
2018-12-08T08:10:33.460Z,99670.09
2018-12-08T08:13:01.745Z,99671.45
2018-12-08T08:15:29.986Z,99681.32
2018-12-08T08:17:58.192Z,99668.92
2018-12-08T08:20:26.441Z,99658.98
2018-12-08T08:22:54.681Z,99655.31
2018-12-08T08:25:22.920Z,99669.88
2018-12-08T08:27:51.203Z,99675.37
2018-12-08T08:30:19.489Z,99653.72
2018-12-08T08:32:47.662Z,99649.18
2018-12-08T08:35:15.837Z,99657.22
2018-12-08T08:37:43.992Z,99660.55
2018-12-08T08:40:12.311Z,99659.61
2018-12-08T08:42:40.453Z,99651.09
2018-12-08T08:45:09.258Z,99645.27
2018-12-08T08:47:38.130Z,99668.67
2018-12-08T08:50:09.296Z,99632.54
2018-12-08T08:52:37.457Z,99642.73
2018-12-08T08:55:06.468Z,99644.97
2018-12-08T08:57:34.616Z,99643.50
2018-12-08T09:00:03.071Z,99642.55
2018-12-08T09:02:31.405Z,99637.24
2018-12-08T09:04:59.556Z,99627.77
2018-12-08T09:07:27.719Z,99621.69
2018-12-08T09:09:55.946Z,99636.66
2018-12-08T09:12:24.101Z,99642.39
2018-12-08T09:14:52.248Z,99640.70
2018-12-08T09:17:20.440Z,99640.14
2018-12-08T09:19:48.604Z,99642.84
2018-12-08T09:22:16.844Z,99638.86
2018-12-08T09:24:45.325Z,99643.87
2018-12-08T09:27:13.550Z,99638.38
2018-12-08T09:29:41.846Z,99645.48
2018-12-08T09:32:10.109Z,99638.23
2018-12-08T09:34:38.269Z,99634.41
2018-12-08T09:37:06.677Z,99634.80
2018-12-08T09:39:34.820Z,99639.82
2018-12-08T09:42:03.234Z,99645.23
2018-12-08T09:44:31.439Z,99642.13
2018-12-08T09:46:59.591Z,99632.36
2018-12-08T09:49:27.740Z,99628.78
2018-12-08T09:51:56.021Z,99640.88
2018-12-08T09:54:24.324Z,99644.94
2018-12-08T09:56:52.597Z,99644.83
2018-12-08T09:59:20.838Z,99643.32
2018-12-08T10:01:49.184Z,99637.98
2018-12-08T10:04:17.420Z,99641.57
2018-12-08T10:06:45.740Z,99638.06
2018-12-08T10:09:14.409Z,99632.66
2018-12-08T10:11:43.393Z,99623.50
2018-12-08T10:14:11.604Z,99620.18
2018-12-08T10:16:39.821Z,99616.05
2018-12-08T10:19:08.043Z,99604.58
2018-12-08T10:21:36.501Z,99613.52
2018-12-08T10:24:04.752Z,99606.43
2018-12-08T10:26:33.007Z,99605.27
2018-12-08T10:29:01.189Z,99597.23
2018-12-08T10:31:29.363Z,99599.27
2018-12-08T10:33:57.681Z,99595.69
2018-12-08T10:36:25.859Z,99592.27
2018-12-08T10:38:54.153Z,99587.53
2018-12-08T10:41:22.334Z,99583.40
2018-12-08T10:43:50.520Z,99592.88
2018-12-08T10:46:18.789Z,99597.41
2018-12-08T10:48:47.161Z,99588.33
2018-12-08T10:51:15.763Z,99588.30
2018-12-08T10:53:43.990Z,99582.14
2018-12-08T10:56:12.220Z,99583.38
2018-12-08T10:58:40.435Z,99586.16
2018-12-08T11:01:14.140Z,99578.39
2018-12-08T11:03:49.021Z,99583.64
2018-12-08T11:06:17.348Z,99579.73
2018-12-08T11:08:45.737Z,99578.74
2018-12-08T11:11:13.900Z,99581.34
2018-12-08T11:13:42.188Z,99581.77
2018-12-08T11:16:10.486Z,99581.87
2018-12-08T11:18:38.744Z,99577.54
2018-12-08T11:21:06.917Z,99574.90
2018-12-08T11:23:35.096Z,99574.59
2018-12-08T11:26:03.398Z,99580.58
2018-12-08T11:28:31.629Z,99578.63
2018-12-08T11:30:59.900Z,99558.30
2018-12-08T11:33:28.136Z,99559.28
2018-12-08T11:35:56.393Z,99559.59
2018-12-08T11:38:24.692Z,99548.19
2018-12-08T11:40:52.924Z,99561.82
2018-12-08T11:43:21.353Z,99553.40
2018-12-08T11:45:49.692Z,99547.49
2018-12-08T11:48:17.848Z,99547.02
2018-12-08T11:50:46.136Z,99556.33
2018-12-08T11:53:14.297Z,99528.52
2018-12-08T11:55:42.493Z,99542.75
2018-12-08T11:58:10.790Z,99540.70
2018-12-08T12:00:39.080Z,99538.22
2018-12-08T12:03:07.317Z,99528.83
2018-12-08T12:05:35.473Z,99534.16
2018-12-08T12:08:03.877Z,99527.00
2018-12-08T12:10:32.038Z,99544.33
2018-12-08T12:13:00.185Z,99546.39
2018-12-08T12:15:28.358Z,99542.33
2018-12-08T12:17:56.564Z,99538.96
2018-12-08T12:20:24.734Z,99541.20
2018-12-08T12:22:52.891Z,99536.34
2018-12-08T12:25:22.099Z,99530.16
2018-12-08T12:27:50.541Z,99532.58
2018-12-08T12:30:19.096Z,99525.52
2018-12-08T12:32:47.245Z,99534.23
2018-12-08T12:35:15.413Z,99533.66
2018-12-08T12:37:43.572Z,99537.33
2018-12-08T12:40:11.888Z,99527.84
2018-12-08T12:42:40.056Z,99529.77
2018-12-08T12:45:08.389Z,99523.47
2018-12-08T12:47:36.637Z,99520.84
2018-12-08T12:50:05.489Z,99530.65
2018-12-08T12:52:33.776Z,99550.11
2018-12-08T12:55:02.056Z,99542.25
2018-12-08T12:57:30.336Z,99538.65
2018-12-08T12:59:58.761Z,99539.91
2018-12-08T13:02:26.900Z,99539.03
2018-12-08T13:04:55.082Z,99538.33
2018-12-08T13:07:23.263Z,99549.48
2018-12-08T13:09:51.553Z,99547.34
2018-12-08T13:12:20.419Z,99547.15
2018-12-08T13:14:48.568Z,99538.23
2018-12-08T13:17:16.766Z,99539.98
2018-12-08T13:19:45.024Z,99545.59
2018-12-08T13:22:13.215Z,99535.92
2018-12-08T13:24:41.490Z,99542.02
2018-12-08T13:27:09.779Z,99530.81
2018-12-08T13:29:38.038Z,99535.86
2018-12-08T13:32:06.532Z,99537.61
2018-12-08T13:34:34.806Z,99538.00
2018-12-08T13:37:02.988Z,99547.98
2018-12-08T13:39:31.241Z,99543.13
2018-12-08T13:41:59.433Z,99535.28
2018-12-08T13:44:36.115Z,99520.36
2018-12-08T13:47:04.705Z,99528.50
2018-12-08T13:49:33.477Z,99532.66
2018-12-08T13:52:01.766Z,99520.23
2018-12-08T13:54:46.227Z,99518.13
2018-12-08T13:57:14.497Z,99512.19
2018-12-08T13:59:50.280Z,99503.47
2018-12-08T14:02:18.428Z,99506.88
2018-12-08T14:04:46.572Z,99518.20
2018-12-08T14:07:14.728Z,99523.89
2018-12-08T14:09:42.941Z,99533.78
2018-12-08T14:12:11.182Z,99532.23
2018-12-08T14:14:39.588Z,99531.05
2018-12-08T14:17:08.415Z,99529.70
2018-12-08T14:19:36.557Z,99534.63
2018-12-08T14:22:05.059Z,99542.14
2018-12-08T14:24:33.204Z,99552.48
2018-12-08T14:27:01.355Z,99544.66
2018-12-08T14:29:29.560Z,99531.20
2018-12-08T14:31:58.028Z,99536.22
2018-12-08T14:34:26.324Z,99545.31
2018-12-08T14:36:54.568Z,99550.73
2018-12-08T14:39:22.764Z,99542.52
2018-12-08T14:41:50.968Z,99541.73
2018-12-08T14:44:19.336Z,99521.01
2018-12-08T14:46:47.713Z,99529.05
2018-12-08T14:49:15.964Z,99531.42
2018-12-08T14:51:44.161Z,99529.19
2018-12-08T14:54:12.460Z,99533.05
2018-12-08T14:56:40.712Z,99524.92
2018-12-08T14:59:09.112Z,99519.98
2018-12-08T15:01:37.272Z,99507.02
2018-12-08T15:04:05.560Z,99502.95
2018-12-08T15:06:33.793Z,99524.33
2018-12-08T15:09:02.121Z,99519.70
2018-12-08T15:11:30.369Z,99526.84
2018-12-08T15:13:58.563Z,99531.98
2018-12-08T15:16:26.820Z,99541.85
2018-12-08T15:18:55.012Z,99535.30
2018-12-08T15:21:23.177Z,99531.41
2018-12-08T15:23:51.368Z,99525.79
2018-12-08T15:26:19.568Z,99516.00
2018-12-08T15:28:47.920Z,99505.55
2018-12-08T15:31:16.201Z,99517.97
2018-12-08T15:33:44.444Z,99507.89
2018-12-08T15:36:12.765Z,99522.31
2018-12-08T15:38:40.928Z,99524.14
2018-12-08T15:41:09.188Z,99518.25
2018-12-08T15:43:37.380Z,99526.77
2018-12-08T15:46:05.847Z,99528.52
2018-12-08T15:48:34.492Z,99527.25
2018-12-08T15:51:02.925Z,99526.38
2018-12-08T15:53:31.124Z,99530.75
2018-12-08T15:55:59.302Z,99517.77
2018-12-08T15:58:27.772Z,99513.30
2018-12-08T16:00:56.161Z,99518.16
2018-12-08T16:03:24.428Z,99531.71
2018-12-08T16:05:52.592Z,99530.92
2018-12-08T16:08:20.766Z,99528.21
2018-12-08T16:10:49.153Z,99530.84
2018-12-08T16:13:17.412Z,99521.07
2018-12-08T16:15:45.812Z,99518.53
2018-12-08T16:18:14.065Z,99507.39
2018-12-08T16:20:42.385Z,99495.98
2018-12-08T16:23:10.624Z,99507.95
2018-12-08T16:25:39.026Z,99507.86
2018-12-08T16:28:07.297Z,99502.92
2018-12-08T16:30:35.580Z,99495.88
2018-12-08T16:33:03.934Z,99499.46
2018-12-08T16:35:32.236Z,99481.54
2018-12-08T16:38:00.389Z,99494.61
2018-12-08T16:40:28.794Z,99477.64
2018-12-08T16:42:56.968Z,99474.19
2018-12-08T16:45:25.344Z,99478.19
2018-12-08T16:47:53.877Z,99479.75
2018-12-08T16:50:22.058Z,99477.31
2018-12-08T16:52:50.255Z,99480.63
2018-12-08T16:55:18.454Z,99469.10
2018-12-08T16:57:46.717Z,99460.50
2018-12-08T17:00:15.320Z,99464.30
2018-12-08T17:02:43.479Z,99459.45
2018-12-08T17:05:11.866Z,99471.16
2018-12-08T17:07:40.037Z,99465.66
2018-12-08T17:10:08.736Z,99455.48
2018-12-08T17:12:37.011Z,99454.92
2018-12-08T17:15:05.997Z,99456.11
2018-12-08T17:17:34.284Z,99449.61
2018-12-08T17:20:02.648Z,99445.75
2018-12-08T17:22:30.965Z,99449.61
2018-12-08T17:24:59.331Z,99442.83
2018-12-08T17:27:27.484Z,99438.11
2018-12-08T17:29:55.641Z,99433.96
2018-12-08T17:32:23.803Z,99434.35
2018-12-08T17:34:52.095Z,99423.39
2018-12-08T17:37:20.400Z,99419.15
2018-12-08T17:39:48.656Z,99426.98
2018-12-08T17:42:16.944Z,99418.67
2018-12-08T17:44:45.088Z,99414.61
2018-12-08T17:47:13.609Z,99399.61
2018-12-08T17:49:41.764Z,99399.91
2018-12-08T17:52:10.160Z,99393.44
2018-12-08T17:54:38.424Z,99384.13
2018-12-08T17:57:06.668Z,99379.23
2018-12-08T17:59:34.886Z,99375.04
2018-12-08T18:02:03.260Z,99375.52
2018-12-08T18:04:31.540Z,99367.39
2018-12-08T18:06:59.688Z,99363.72
2018-12-08T18:09:27.928Z,99353.96
2018-12-08T18:11:56.089Z,99348.41
2018-12-08T18:14:24.241Z,99346.09
2018-12-08T18:16:52.446Z,99353.27
2018-12-08T18:19:20.607Z,99333.32
2018-12-08T18:21:48.920Z,99339.14
2018-12-08T18:24:17.239Z,99320.17
2018-12-08T18:26:45.629Z,99323.45
2018-12-08T18:29:13.796Z,99326.73
2018-12-08T18:31:42.116Z,99319.59
2018-12-08T18:34:10.473Z,99332.16
2018-12-08T18:36:38.727Z,99314.72
2018-12-08T18:39:07.456Z,99312.97
2018-12-08T18:41:35.701Z,99315.14
2018-12-08T18:44:03.957Z,99313.79
2018-12-08T18:46:32.154Z,99302.34
2018-12-08T18:49:00.328Z,99300.89
2018-12-08T18:51:28.596Z,99299.45
2018-12-08T18:53:56.752Z,99288.22
2018-12-08T18:56:24.897Z,99282.41
2018-12-08T18:58:53.122Z,99264.05
2018-12-08T19:01:21.542Z,99266.63
2018-12-08T19:03:49.785Z,99268.64
2018-12-08T19:06:17.944Z,99257.51
2018-12-08T19:08:46.178Z,99252.57
2018-12-08T19:11:14.423Z,99259.73
2018-12-08T19:13:42.580Z,99255.30
2018-12-08T19:16:10.794Z,99263.70
2018-12-08T19:18:38.963Z,99236.89
2018-12-08T19:21:07.219Z,99237.88
2018-12-08T19:23:43.389Z,99236.15
2018-12-08T19:26:05.815Z,99205.17
2018-12-08T19:28:34.080Z,99202.47
2018-12-08T19:31:02.263Z,99195.39
2018-12-08T19:33:30.546Z,99178.66
2018-12-08T19:35:59.636Z,99189.40
2018-12-08T19:38:28.046Z,99181.09
2018-12-08T19:40:56.199Z,99173.61
2018-12-08T19:43:27.496Z,99180.20
2018-12-08T19:45:55.833Z,99160.84
2018-12-08T19:48:23.979Z,99160.36
2018-12-08T19:50:52.208Z,99152.52
2018-12-08T19:53:20.437Z,99142.34
2018-12-08T19:55:48.636Z,99134.59
2018-12-08T19:58:16.804Z,99150.08
2018-12-08T20:00:44.968Z,99131.89
2018-12-08T20:03:13.257Z,99123.47
2018-12-08T20:05:41.532Z,99130.15
2018-12-08T20:08:09.760Z,99102.66
2018-12-08T20:10:37.976Z,99110.79
2018-12-08T20:13:06.364Z,99108.95
2018-12-08T20:15:34.756Z,99089.02
2018-12-08T20:18:02.897Z,99058.42
2018-12-08T20:20:31.201Z,99088.05
2018-12-08T20:22:59.560Z,99067.81
2018-12-08T20:25:27.776Z,99072.75
2018-12-08T20:27:56.017Z,99064.33
2018-12-08T20:30:24.184Z,99070.27
2018-12-08T20:32:52.377Z,99047.09
2018-12-08T20:35:20.600Z,99067.72
2018-12-08T20:37:48.749Z,99052.23
2018-12-08T20:40:16.989Z,99041.00
2018-12-08T20:42:45.173Z,99034.61
2018-12-08T20:45:13.456Z,99029.96
2018-12-08T20:47:41.628Z,99023.05
2018-12-08T20:50:09.800Z,99009.50
2018-12-08T20:52:38.095Z,99014.44
2018-12-08T20:55:06.464Z,99001.86
2018-12-08T20:57:34.638Z,98986.70
2018-12-08T21:00:03.015Z,98974.40
2018-12-08T21:02:31.193Z,98970.10
2018-12-08T21:04:59.569Z,98956.34
2018-12-08T21:07:27.720Z,98949.95
2018-12-08T21:09:56.008Z,98941.97
2018-12-08T21:12:24.197Z,98922.41
2018-12-08T21:14:52.465Z,98914.66
2018-12-08T21:17:20.627Z,98889.50
2018-12-08T21:19:48.807Z,98886.02
2018-12-08T21:22:17.001Z,98901.91
2018-12-08T21:24:45.208Z,98903.64
2018-12-08T21:27:13.353Z,98892.06
2018-12-08T21:29:41.655Z,98870.14
2018-12-08T21:32:10.970Z,98858.33
2018-12-08T21:34:39.405Z,98854.84
2018-12-08T21:37:07.553Z,98848.45
2018-12-08T21:39:35.797Z,98837.61
2018-12-08T21:42:04.126Z,98815.47
2018-12-08T21:44:32.428Z,98807.72
2018-12-08T21:47:00.823Z,98824.27
2018-12-08T21:49:28.998Z,98817.28
2018-12-08T21:51:57.232Z,98806.92
2018-12-08T21:54:25.433Z,98823.92
2018-12-08T21:56:53.633Z,98805.95
2018-12-08T21:59:21.903Z,98799.80
2018-12-08T22:01:50.156Z,98776.85
2018-12-08T22:04:18.387Z,98775.08
2018-12-08T22:06:46.697Z,98785.27
2018-12-08T22:09:15.001Z,98770.62
2018-12-08T22:11:43.276Z,98777.64
2018-12-08T22:14:11.557Z,98766.69
2018-12-08T22:16:39.836Z,98733.17
2018-12-08T22:19:08.217Z,98727.16
2018-12-08T22:21:36.615Z,98706.84
2018-12-08T22:24:05.053Z,98716.69
2018-12-08T22:26:33.328Z,98730.11
2018-12-08T22:29:01.632Z,98719.89
2018-12-08T22:31:29.936Z,98711.98
2018-12-08T22:33:58.152Z,98690.45
2018-12-08T22:36:26.358Z,98682.05
2018-12-08T22:38:54.500Z,98705.35
2018-12-08T22:41:22.796Z,98676.72
2018-12-08T22:43:50.952Z,98672.27
2018-12-08T22:46:19.360Z,98655.24
2018-12-08T22:48:47.517Z,98630.72
2018-12-08T22:51:15.791Z,98625.41
2018-12-08T22:53:43.962Z,98619.70
2018-12-08T22:56:12.148Z,98634.52
2018-12-08T22:58:40.525Z,98641.29
2018-12-08T23:01:08.860Z,98645.52
2018-12-08T23:03:37.078Z,98629.36
2018-12-08T23:06:05.372Z,98610.38
2018-12-08T23:08:33.568Z,98584.63
2018-12-08T23:11:01.721Z,98580.45
2018-12-08T23:13:29.859Z,98590.16
2018-12-08T23:15:58.185Z,98556.64
2018-12-08T23:18:26.449Z,98569.60
2018-12-08T23:20:54.623Z,98558.77
2018-12-08T23:23:22.788Z,98560.76
2018-12-08T23:25:51.085Z,98538.20
2018-12-08T23:28:19.250Z,98552.48
2018-12-08T23:30:47.616Z,98553.34
2018-12-08T23:33:15.961Z,98536.47
2018-12-08T23:35:44.272Z,98555.94
2018-12-08T23:38:12.576Z,98543.96
2018-12-08T23:40:40.752Z,98550.02
2018-12-08T23:43:08.912Z,98509.95
2018-12-08T23:45:37.068Z,98500.46
2018-12-08T23:48:05.377Z,98507.36
2018-12-08T23:50:33.676Z,98496.51
2018-12-08T23:53:01.816Z,98506.53
2018-12-08T23:55:29.964Z,98484.72
2018-12-08T23:57:58.112Z,98482.73
